Time;durP1;ratioP1;P1;durP2;ratioP2;P2;SDS_P1;SDS_P2;PMS_P1;PMS_P2;Temp;Humidity;BMP_temperature;BMP_pressure;BME280_temperature;BME280_humidity;BME280_pressure;Samples;Min_cycle;Max_cycle;Signal;HPM_P1;HPM_P2
2021/05/14 00:00:39;;;;;;;2.42;1.50;;;11.60;99.90;;;;;;5039134;28;20740;-74
2021/05/14 00:03:06;;;;;;;1.67;1.58;;;11.60;99.90;;;;;;5032985;28;20190;-74
2021/05/14 00:05:34;;;;;;;1.80;1.70;;;11.70;99.90;;;;;;5042276;28;20206;-74
2021/05/14 00:08:03;;;;;;;1.77;1.42;;;11.80;99.90;;;;;;5033835;28;20674;-74
2021/05/14 00:10:29;;;;;;;1.70;1.60;;;11.80;99.90;;;;;;5028897;28;20220;-75
2021/05/14 00:12:56;;;;;;;1.30;1.30;;;11.90;99.90;;;;;;5037541;28;20192;-75
2021/05/14 00:15:23;;;;;;;1.45;1.45;;;11.90;99.90;;;;;;5031867;28;20672;-75
2021/05/14 00:17:50;;;;;;;1.42;1.42;;;11.90;99.90;;;;;;5031652;28;20215;-75
2021/05/14 00:20:17;;;;;;;2.03;1.92;;;11.90;99.90;;;;;;5030025;28;20338;-75
2021/05/14 00:22:44;;;;;;;2.13;2.03;;;11.90;99.90;;;;;;5035317;28;20200;-75
2021/05/14 00:25:13;;;;;;;2.50;2.15;;;11.80;99.90;;;;;;5041060;28;20226;-75
2021/05/14 00:27:39;;;;;;;1.90;1.80;;;11.70;99.90;;;;;;5035943;28;20195;-75
2021/05/14 00:30:08;;;;;;;1.70;1.60;;;11.80;99.90;;;;;;5034417;28;20242;-73
2021/05/14 00:32:35;;;;;;;1.70;1.60;;;11.80;99.90;;;;;;5029450;28;20199;-74
2021/05/14 00:35:02;;;;;;;2.58;1.90;;;11.80;99.90;;;;;;5032341;28;20254;-74
2021/05/14 00:37:29;;;;;;;1.90;1.75;;;11.80;99.90;;;;;;5030218;28;20759;-75
2021/05/14 00:39:55;;;;;;;1.65;1.50;;;11.80;99.90;;;;;;5039889;28;20215;-74
2021/05/14 00:42:23;;;;;;;1.90;1.80;;;11.80;99.90;;;;;;5033837;28;20200;-75
2021/05/14 00:44:50;;;;;;;1.60;1.38;;;11.80;99.90;;;;;;5033676;28;20195;-75
2021/05/14 00:47:18;;;;;;;1.85;1.75;;;11.70;99.90;;;;;;5035595;28;20200;-75
2021/05/14 00:49:45;;;;;;;1.50;1.50;;;11.80;99.90;;;;;;5029787;28;20587;-74
2021/05/14 00:52:15;;;;;;;1.45;1.38;;;11.80;99.90;;;;;;5038694;28;20206;-74
2021/05/14 00:54:42;;;;;;;1.50;1.40;;;11.90;99.90;;;;;;5036513;28;20636;-75
2021/05/14 00:57:09;;;;;;;1.80;1.70;;;11.90;99.90;;;;;;5032997;28;20196;-75
2021/05/14 00:59:37;;;;;;;1.77;1.67;;;11.90;99.90;;;;;;5028465;28;20241;-74
2021/05/14 01:02:05;;;;;;;1.67;1.58;;;12.00;99.90;;;;;;5031158;28;20241;-75
2021/05/14 01:04:32;;;;;;;1.60;1.60;;;12.00;99.90;;;;;;5035482;28;20276;-74
2021/05/14 01:06:59;;;;;;;1.17;1.17;;;12.00;99.90;;;;;;5027124;28;20200;-74
2021/05/14 01:09:25;;;;;;;1.30;1.20;;;12.00;99.90;;;;;;5034135;28;20219;-75
2021/05/14 01:11:52;;;;;;;12.23;2.33;;;11.90;99.90;;;;;;5037684;28;20196;-75
2021/05/14 01:14:19;;;;;;;1.67;1.58;;;11.80;99.90;;;;;;5033155;28;20254;-75
2021/05/14 01:16:47;;;;;;;1.80;1.70;;;11.80;99.90;;;;;;5037620;28;20566;-75
2021/05/14 01:19:14;;;;;;;1.80;1.70;;;11.80;99.90;;;;;;5029599;28;20238;-75
2021/05/14 01:21:41;;;;;;;1.40;1.40;;;11.80;99.90;;;;;;5038975;28;20196;-74
2021/05/14 01:24:09;;;;;;;2.17;1.98;;;11.80;99.90;;;;;;5037857;28;20207;-74
2021/05/14 01:26:36;;;;;;;2.20;2.00;;;11.80;99.90;;;;;;5035186;28;20672;-75
2021/05/14 01:29:06;;;;;;;1.70;1.60;;;11.70;99.90;;;;;;5029829;28;20265;-74
2021/05/14 01:31:33;;;;;;;2.13;1.90;;;11.70;99.90;;;;;;5038156;28;20203;-74
2021/05/14 01:34:00;;;;;;;1.80;1.70;;;11.70;99.90;;;;;;5036119;28;20250;-75
2021/05/14 01:36:27;;;;;;;2.03;1.92;;;11.60;99.90;;;;;;5037992;28;20203;-74
2021/05/14 01:38:54;;;;;;;1.73;1.63;;;11.70;99.90;;;;;;5031497;28;20216;-74
2021/05/14 01:41:21;;;;;;;2.05;1.95;;;11.60;99.90;;;;;;5038358;28;20573;-74
2021/05/14 01:43:48;;;;;;;2.65;1.85;;;11.70;99.90;;;;;;5032009;28;20199;-74
2021/05/14 01:46:14;;;;;;;1.83;1.73;;;11.70;99.90;;;;;;5042851;28;20206;-74
2021/05/14 01:48:41;;;;;;;1.80;1.70;;;11.80;99.90;;;;;;5032338;28;20231;-74
2021/05/14 01:51:15;;;;;;;1.90;1.80;;;11.80;99.90;;;;;;5035810;28;20728;-74
2021/05/14 01:53:42;;;;;;;2.10;2.00;;;11.80;99.90;;;;;;5029878;28;20206;-74
2021/05/14 01:56:09;;;;;;;2.05;1.95;;;11.80;99.90;;;;;;5038646;28;20207;-74
2021/05/14 01:58:36;;;;;;;1.80;1.70;;;11.80;99.90;;;;;;5031351;28;20215;-74
2021/05/14 02:01:03;;;;;;;1.52;1.42;;;11.80;99.90;;;;;;5029240;28;20216;-75
2021/05/14 02:03:29;;;;;;;1.88;1.77;;;11.90;99.90;;;;;;5030926;28;20202;-74
2021/05/14 02:05:56;;;;;;;1.80;1.70;;;11.80;99.90;;;;;;5035618;28;20202;-74
2021/05/14 02:08:23;;;;;;;1.75;1.65;;;11.70;99.90;;;;;;5028038;28;20191;-73
2021/05/14 02:10:50;;;;;;;39.85;2.78;;;11.70;99.90;;;;;;5037867;28;20214;-74
2021/05/14 02:13:18;;;;;;;2.03;1.92;;;11.70;99.90;;;;;;5033181;28;20567;-74
2021/05/14 02:15:44;;;;;;;2.38;2.28;;;11.70;99.90;;;;;;5034901;28;20203;-74
2021/05/14 02:18:13;;;;;;;1.80;1.70;;;11.60;99.90;;;;;;5031913;28;20238;-74
2021/05/14 02:20:39;;;;;;;2.10;1.85;;;11.60;99.90;;;;;;5036546;28;20211;-74
2021/05/14 02:23:06;;;;;;;1.45;1.35;;;11.60;99.90;;;;;;5032313;28;20670;-74
2021/05/14 02:25:33;;;;;;;1.70;1.60;;;11.60;99.90;;;;;;5036682;28;20200;-74
2021/05/14 02:27:59;;;;;;;1.33;1.33;;;11.60;99.90;;;;;;5034270;28;20202;-74
2021/05/14 02:30:27;;;;;;;1.73;1.63;;;11.60;99.90;;;;;;5037300;28;20219;-74
2021/05/14 02:32:53;;;;;;;1.30;1.30;;;11.50;99.90;;;;;;5031827;28;20618;-74
2021/05/14 02:35:20;;;;;;;1.45;1.38;;;11.50;99.90;;;;;;5035109;28;20202;-74
2021/05/14 02:37:47;;;;;;;1.60;1.50;;;11.50;99.90;;;;;;5032484;28;20211;-72
2021/05/14 02:40:14;;;;;;;1.63;1.52;;;11.50;99.90;;;;;;5028311;28;20714;-74
2021/05/14 02:42:41;;;;;;;1.70;1.60;;;11.50;99.90;;;;;;5034823;28;20206;-74
2021/05/14 02:45:09;;;;;;;1.50;1.42;;;11.40;99.90;;;;;;5039083;28;20578;-75
2021/05/14 02:47:36;;;;;;;1.73;1.63;;;11.40;99.90;;;;;;5040464;28;20202;-74
2021/05/14 02:50:04;;;;;;;9.65;2.03;;;11.40;99.90;;;;;;5052131;22;20224;-76
2021/05/14 02:52:31;;;;;;;3.22;2.00;;;11.30;99.90;;;;;;5021966;28;20196;-80
2021/05/14 02:54:57;;;;;;;1.58;1.48;;;11.30;99.90;;;;;;5030048;28;20206;-79
2021/05/14 02:57:24;;;;;;;1.88;1.77;;;11.20;99.90;;;;;;5022382;28;20210;-80
2021/05/14 02:59:50;;;;;;;1.85;1.75;;;11.20;99.90;;;;;;5025851;28;20195;-80
2021/05/14 03:02:17;;;;;;;1.90;1.80;;;11.20;99.90;;;;;;5028442;28;20199;-77
2021/05/14 03:04:44;;;;;;;1.95;1.85;;;11.20;99.90;;;;;;5027154;28;20199;-78
2021/05/14 03:07:11;;;;;;;1.65;1.55;;;11.30;99.90;;;;;;5030034;28;20226;-78
2021/05/14 03:09:38;;;;;;;1.80;1.70;;;11.40;99.90;;;;;;5029802;28;20264;-76
2021/05/14 03:12:05;;;;;;;1.77;1.67;;;11.40;99.90;;;;;;5029799;28;20192;-78
2021/05/14 03:14:32;;;;;;;1.80;1.70;;;11.50;99.90;;;;;;5028397;28;20211;-77
2021/05/14 03:16:59;;;;;;;1.65;1.60;;;11.40;99.90;;;;;;5030290;28;20207;-80
2021/05/14 03:19:26;;;;;;;1.73;1.63;;;11.40;99.90;;;;;;5024266;28;20246;-79
2021/05/14 03:21:54;;;;;;;2.00;1.90;;;11.30;99.90;;;;;;5030146;28;20216;-77
2021/05/14 03:24:20;;;;;;;2.00;1.90;;;11.30;99.90;;;;;;5028400;28;20210;-79
2021/05/14 03:26:51;;;;;;;2.03;1.92;;;11.30;99.90;;;;;;5031557;28;20279;-75
2021/05/14 03:29:18;;;;;;;1.73;1.63;;;11.20;99.90;;;;;;5023035;28;20326;-79
2021/05/14 03:31:45;;;;;;;2.00;1.90;;;11.20;99.90;;;;;;5028157;28;20211;-80
2021/05/14 03:34:11;;;;;;;1.92;1.83;;;11.20;99.90;;;;;;5023261;28;22014;-78
2021/05/14 03:36:38;;;;;;;1.42;1.42;;;11.20;99.90;;;;;;5024348;28;20211;-79
2021/05/14 03:39:08;;;;;;;1.83;1.73;;;11.30;99.90;;;;;;5023660;28;20647;-80
2021/05/14 03:41:46;;;;;;;1.50;1.50;;;11.30;99.90;;;;;;5030407;28;20227;-75
2021/05/14 03:44:12;;;;;;;1.75;1.65;;;11.30;99.90;;;;;;5021470;28;20302;-75
2021/05/14 03:46:39;;;;;;;1.52;1.52;;;11.30;99.90;;;;;;5036154;28;20199;-80
2021/05/14 03:49:06;;;;;;;1.30;1.30;;;11.30;99.90;;;;;;5029710;28;20197;-76
2021/05/14 03:51:35;;;;;;;1.55;1.55;;;11.30;99.90;;;;;;5025457;28;20733;-77
2021/05/14 03:54:03;;;;;;;1.50;1.40;;;11.30;99.90;;;;;;5026627;28;20191;-79
2021/05/14 03:56:30;;;;;;;1.30;1.30;;;11.30;99.90;;;;;;5032440;28;20200;-77
2021/05/14 03:58:58;;;;;;;1.30;1.30;;;11.30;99.90;;;;;;5024024;28;21984;-75
2021/05/14 04:01:25;;;;;;;1.25;1.13;;;11.40;99.90;;;;;;5031790;28;20227;-78
2021/05/14 04:03:51;;;;;;;1.85;1.75;;;11.40;99.90;;;;;;5030946;28;20200;-77
2021/05/14 04:06:18;;;;;;;1.50;1.50;;;11.40;99.90;;;;;;5029365;28;20203;-76
2021/05/14 04:08:45;;;;;;;1.55;1.50;;;11.40;99.90;;;;;;5026653;28;20253;-79
2021/05/14 04:11:29;;;;;;;2.05;1.95;;;11.40;99.90;;;;;;5028475;28;20707;-76
2021/05/14 04:16:40;;;;;;;1.60;1.60;;;11.40;99.90;;;;;;5030526;28;20327;-76
2021/05/14 04:19:07;;;;;;;1.63;1.52;;;11.40;99.90;;;;;;5024437;28;20215;-73
2021/05/14 04:21:34;;;;;;;1.52;1.52;;;11.40;99.90;;;;;;5023209;28;20228;-73
2021/05/14 04:24:01;;;;;;;1.60;1.50;;;11.40;99.90;;;;;;5027315;28;20215;-79
2021/05/14 04:26:27;;;;;;;1.90;1.80;;;11.40;99.90;;;;;;5030802;28;20199;-77
2021/05/14 04:28:54;;;;;;;1.60;1.60;;;11.40;99.90;;;;;;5026281;28;20212;-79
2021/05/14 04:31:21;;;;;;;1.73;1.70;;;11.50;99.90;;;;;;5026578;28;20265;-74
2021/05/14 04:33:48;;;;;;;2.25;2.15;;;11.50;99.90;;;;;;5028473;28;20195;-77
2021/05/14 04:36:15;;;;;;;1.67;1.58;;;11.60;99.90;;;;;;5027399;28;20258;-76
2021/05/14 04:38:41;;;;;;;1.70;1.60;;;11.60;99.90;;;;;;5031768;28;20219;-76
2021/05/14 04:41:08;;;;;;;1.50;1.50;;;11.70;99.90;;;;;;5032326;28;20223;-76
2021/05/14 04:43:34;;;;;;;1.45;1.45;;;11.70;99.90;;;;;;5030479;28;20732;-75
2021/05/14 04:46:01;;;;;;;1.70;1.60;;;11.80;99.90;;;;;;5035172;28;20196;-73
2021/05/14 04:48:28;;;;;;;1.20;1.20;;;11.80;99.90;;;;;;5036779;28;20191;-74
2021/05/14 04:50:55;;;;;;;1.50;1.50;;;11.80;99.90;;;;;;5031301;28;20227;-77
2021/05/14 04:53:29;;;;;;;1.70;1.60;;;11.70;99.90;;;;;;5031520;28;20194;-75
2021/05/14 04:55:56;;;;;;;1.50;1.40;;;11.70;99.90;;;;;;5032729;28;20740;-74
2021/05/14 04:58:23;;;;;;;1.40;1.40;;;11.80;99.90;;;;;;5027285;28;20220;-75
2021/05/14 05:00:49;;;;;;;1.27;1.27;;;11.80;99.90;;;;;;5032548;28;20250;-75
2021/05/14 05:03:16;;;;;;;1.30;1.30;;;11.90;99.90;;;;;;5030189;28;20696;-73
2021/05/14 05:05:45;;;;;;;11.70;1.90;;;11.90;99.90;;;;;;5025469;28;20207;-76
2021/05/14 05:08:11;;;;;;;1.70;1.65;;;11.90;99.90;;;;;;5031110;28;20204;-76
2021/05/14 05:10:38;;;;;;;5.82;1.95;;;11.90;99.90;;;;;;5030990;28;20223;-75
2021/05/14 05:13:04;;;;;;;1.98;1.88;;;11.90;99.90;;;;;;5033171;28;20203;-75
2021/05/14 05:15:31;;;;;;;2.15;2.05;;;11.90;99.90;;;;;;5034156;28;20214;-74
2021/05/14 05:17:57;;;;;;;2.20;2.10;;;11.90;99.90;;;;;;5034091;28;20257;-76
2021/05/14 05:20:24;;;;;;;2.00;1.90;;;11.90;99.90;;;;;;5024701;28;20220;-74
2021/05/14 05:22:52;;;;;;;1.88;1.80;;;11.90;99.90;;;;;;5029879;28;20211;-74
2021/05/14 05:25:18;;;;;;;1.65;1.65;;;12.00;99.90;;;;;;5029790;28;20204;-74
2021/05/14 05:27:45;;;;;;;1.77;1.67;;;12.10;99.90;;;;;;5024484;28;20195;-71
2021/05/14 05:30:13;;;;;;;1.73;1.50;;;12.10;99.90;;;;;;5019657;28;20734;-72
2021/05/14 05:32:39;;;;;;;2.17;2.08;;;12.20;99.90;;;;;;5020972;28;20234;-73
2021/05/14 05:35:07;;;;;;;1.95;1.85;;;12.20;99.90;;;;;;5021136;28;20206;-75
2021/05/14 05:37:33;;;;;;;4.15;2.35;;;12.10;99.90;;;;;;5021360;28;20207;-71
2021/05/14 05:40:01;;;;;;;2.30;2.20;;;12.00;99.90;;;;;;5021057;28;20211;-73
2021/05/14 05:42:28;;;;;;;2.42;2.22;;;12.00;99.90;;;;;;5020085;28;20202;-73
2021/05/14 05:44:54;;;;;;;2.15;2.05;;;12.00;99.90;;;;;;5024283;28;20196;-74
2021/05/14 05:47:21;;;;;;;2.20;2.10;;;12.10;99.90;;;;;;5020130;28;20207;-74
2021/05/14 05:49:47;;;;;;;2.20;2.10;;;12.10;99.90;;;;;;5021047;28;20250;-71
2021/05/14 05:52:14;;;;;;;2.00;1.90;;;12.20;99.90;;;;;;5021338;28;20203;-72
2021/05/14 05:54:41;;;;;;;1.83;1.73;;;12.30;99.90;;;;;;5022605;28;20195;-74
2021/05/14 05:57:09;;;;;;;2.25;2.05;;;12.40;99.90;;;;;;5017510;28;20216;-72
2021/05/14 05:59:38;;;;;;;1.88;1.77;;;12.40;99.90;;;;;;5015021;28;20238;-73
2021/05/14 06:02:05;;;;;;;2.10;2.00;;;12.50;99.90;;;;;;5023447;28;20232;-74
2021/05/14 06:04:32;;;;;;;2.00;1.90;;;12.50;99.90;;;;;;5017470;28;20188;-73
2021/05/14 06:06:59;;;;;;;1.90;1.80;;;12.60;99.90;;;;;;5019317;28;20200;-76
2021/05/14 06:09:26;;;;;;;1.70;1.60;;;12.60;99.90;;;;;;5019224;28;20207;-76
2021/05/14 06:11:53;;;;;;;2.15;2.05;;;12.80;99.90;;;;;;5017644;28;20224;-74
2021/05/14 06:14:20;;;;;;;1.75;1.65;;;12.90;99.90;;;;;;5019325;28;20504;-72
2021/05/14 06:16:47;;;;;;;1.90;1.80;;;13.00;99.90;;;;;;5013599;28;20202;-75
2021/05/14 06:19:16;;;;;;;2.00;1.90;;;13.10;99.90;;;;;;5019176;28;20223;-71
2021/05/14 06:21:47;;;;;;;2.05;1.95;;;13.30;99.90;;;;;;5016220;28;20310;-74
2021/05/14 06:24:14;;;;;;;2.10;2.00;;;13.40;99.90;;;;;;5023343;28;20233;-74
2021/05/14 06:26:40;;;;;;;2.30;2.20;;;13.50;99.90;;;;;;5016709;28;20203;-76
2021/05/14 06:29:07;;;;;;;3.40;1.98;;;13.60;99.90;;;;;;5020379;28;20204;-73
2021/05/14 06:31:35;;;;;;;1.88;1.77;;;13.70;99.90;;;;;;5019131;28;20251;-74
2021/05/14 06:34:02;;;;;;;2.00;1.90;;;13.60;99.90;;;;;;5017764;28;20207;-73
2021/05/14 06:36:29;;;;;;;1.90;1.80;;;13.60;99.90;;;;;;5022959;28;20234;-72
2021/05/14 06:38:56;;;;;;;1.80;1.70;;;13.50;99.90;;;;;;5016078;28;20733;-73
2021/05/14 06:41:22;;;;;;;2.00;1.90;;;13.40;99.90;;;;;;5018734;28;21209;-70
2021/05/14 06:43:49;;;;;;;2.13;2.03;;;13.30;99.90;;;;;;5020734;28;20214;-72
2021/05/14 06:46:16;;;;;;;2.00;1.80;;;13.20;99.90;;;;;;5019108;28;20222;-72
2021/05/14 06:48:44;;;;;;;1.73;1.70;;;13.30;99.90;;;;;;5015056;28;20287;-71
2021/05/14 06:51:11;;;;;;;2.03;1.80;;;13.30;99.90;;;;;;5015301;28;20227;-71
2021/05/14 06:53:38;;;;;;;2.03;1.92;;;13.50;99.90;;;;;;5013384;28;20212;-73
2021/05/14 06:56:05;;;;;;;1.77;1.67;;;13.70;99.90;;;;;;5016257;28;20234;-72
2021/05/14 06:58:31;;;;;;;1.70;1.60;;;13.90;99.90;;;;;;5020299;28;20786;-75
2021/05/14 07:00:58;;;;;;;1.90;1.80;;;14.00;99.90;;;;;;5016393;28;20219;-72
2021/05/14 07:03:25;;;;;;;2.47;2.35;;;14.10;99.90;;;;;;5013056;28;20203;-72
2021/05/14 07:05:52;;;;;;;2.55;2.35;;;14.20;99.90;;;;;;5016041;28;20196;-70
2021/05/14 07:08:19;;;;;;;2.42;2.33;;;14.50;99.90;;;;;;5012761;28;20265;-72
2021/05/14 07:10:45;;;;;;;2.15;2.05;;;14.70;99.90;;;;;;5019938;28;20643;-70
2021/05/14 07:13:12;;;;;;;2.10;1.90;;;14.80;99.90;;;;;;5011116;28;20626;-72
2021/05/14 07:15:39;;;;;;;2.20;2.00;;;14.80;99.90;;;;;;5013217;28;20199;-75
2021/05/14 07:18:05;;;;;;;2.92;1.98;;;14.70;99.90;;;;;;5021625;28;20212;-73
2021/05/14 07:20:33;;;;;;;1.90;1.80;;;14.60;99.90;;;;;;5017506;28;20593;-71
2021/05/14 07:23:00;;;;;;;1.90;1.80;;;14.50;99.90;;;;;;5017074;28;20672;-71
2021/05/14 07:25:27;;;;;;;2.00;1.90;;;14.40;99.90;;;;;;5015476;28;20667;-72
2021/05/14 07:27:53;;;;;;;2.03;1.92;;;14.40;99.90;;;;;;5024944;28;20199;-71
2021/05/14 07:30:21;;;;;;;1.70;1.60;;;14.50;99.90;;;;;;5015368;28;20219;-73
2021/05/14 07:32:47;;;;;;;1.85;1.75;;;14.60;99.90;;;;;;5016229;28;20200;-75
2021/05/14 07:35:14;;;;;;;1.67;1.58;;;14.90;99.90;;;;;;5013546;28;20203;-74
2021/05/14 07:37:41;;;;;;;1.60;1.50;;;15.40;99.90;;;;;;5027251;28;20261;-70
2021/05/14 07:40:10;;;;;;;1.45;1.35;;;15.90;99.90;;;;;;5017899;28;20673;-74
2021/05/14 07:42:36;;;;;;;1.50;1.40;;;16.10;99.90;;;;;;5015726;28;20747;-73
2021/05/14 07:45:04;;;;;;;1.48;1.48;;;16.20;99.90;;;;;;5014535;28;20424;-71
2021/05/14 07:47:31;;;;;;;1.65;1.55;;;16.40;99.90;;;;;;5014815;28;20199;-71
2021/05/14 07:49:58;;;;;;;1.70;1.60;;;16.50;99.90;;;;;;5018196;28;20215;-73
2021/05/14 07:52:24;;;;;;;1.20;1.20;;;16.80;99.90;;;;;;5013823;28;20722;-73
2021/05/14 07:54:51;;;;;;;1.50;1.50;;;17.00;99.90;;;;;;5016677;28;20214;-72
2021/05/14 07:57:18;;;;;;;2.05;1.52;;;17.20;99.90;;;;;;5017636;28;20674;-71
2021/05/14 07:59:45;;;;;;;1.58;1.48;;;17.40;99.90;;;;;;5020587;28;20267;-71
2021/05/14 08:02:11;;;;;;;1.30;1.30;;;17.60;99.90;;;;;;5018524;28;20261;-73
2021/05/14 08:04:38;;;;;;;2.35;1.30;;;17.50;99.90;;;;;;5018362;28;20195;-74
2021/05/14 08:07:05;;;;;;;1.27;1.20;;;17.40;99.90;;;;;;5014728;28;20714;-72
2021/05/14 08:09:31;;;;;;;1.25;1.20;;;17.40;99.90;;;;;;5022067;28;20211;-73
2021/05/14 08:11:58;;;;;;;1.42;1.30;;;17.40;99.90;;;;;;5019912;28;20612;-73
2021/05/14 08:14:25;;;;;;;1.10;1.10;;;17.20;99.90;;;;;;5015578;28;20211;-74
2021/05/14 08:16:52;;;;;;;1.20;1.10;;;17.20;99.90;;;;;;5026256;28;20211;-71
2021/05/14 08:19:19;;;;;;;1.30;1.30;;;17.30;99.90;;;;;;5024267;28;20421;-71
2021/05/14 08:21:46;;;;;;;1.25;1.17;;;17.20;99.90;;;;;;5023903;28;20259;-74
2021/05/14 08:24:13;;;;;;;1.20;1.00;;;17.50;99.90;;;;;;5022453;28;20204;-71
2021/05/14 08:26:41;;;;;;;2.05;1.30;;;17.80;99.90;;;;;;5024355;28;20219;-72
2021/05/14 08:29:09;;;;;;;1.20;1.10;;;18.00;99.90;;;;;;5024067;28;20203;-69
2021/05/14 08:31:39;;;;;;;1.00;1.00;;;17.80;99.90;;;;;;5024018;28;20610;-71
2021/05/14 08:34:06;;;;;;;1.30;1.20;;;17.70;99.90;;;;;;5022040;28;20199;-70
2021/05/14 08:36:33;;;;;;;1.20;1.15;;;17.70;99.90;;;;;;5022587;28;20205;-71
2021/05/14 08:39:00;;;;;;;1.20;1.10;;;18.10;99.90;;;;;;5028179;28;20218;-72
2021/05/14 08:41:26;;;;;;;1.10;1.10;;;18.20;99.90;;;;;;5026383;28;20219;-74
2021/05/14 08:43:53;;;;;;;1.15;1.15;;;18.20;99.90;;;;;;5024660;28;20204;-72
2021/05/14 08:46:23;;;;;;;1.92;1.23;;;18.10;99.90;;;;;;5024779;28;20195;-71
2021/05/14 08:48:53;;;;;;;1.10;1.10;;;17.90;99.90;;;;;;5022721;28;20259;-71
2021/05/14 08:51:25;;;;;;;1.15;1.15;;;17.90;99.90;;;;;;5051816;23;20700;-75
2021/05/14 08:53:52;;;;;;;1.30;1.20;;;17.70;99.90;;;;;;5034082;28;20624;-76
2021/05/14 08:56:19;;;;;;;1.20;1.20;;;17.60;99.90;;;;;;5039705;28;20584;-75
2021/05/14 08:58:46;;;;;;;1.02;0.95;;;17.80;99.90;;;;;;5041577;28;20269;-76
2021/05/14 09:01:13;;;;;;;0.85;0.85;;;18.00;99.90;;;;;;5037806;28;20332;-75
2021/05/14 09:03:57;;;;;;;1.15;0.80;;;18.30;99.90;;;;;;5040430;28;20518;-74
2021/05/14 09:06:34;;;;;;;1.20;1.00;;;18.50;99.90;;;;;;5037025;28;20206;-76
2021/05/14 09:09:04;;;;;;;1.00;1.00;;;18.60;99.90;;;;;;5038050;28;20212;-73
2021/05/14 09:11:36;;;;;;;1.00;0.75;;;18.30;99.90;;;;;;5036352;28;20227;-76
2021/05/14 09:14:03;;;;;;;1.15;1.00;;;17.80;99.90;;;;;;5040992;28;20207;-75
2021/05/14 09:16:43;;;;;;;1.20;1.00;;;17.30;99.90;;;;;;5036259;28;20293;-73
2021/05/14 09:19:11;;;;;;;1.00;1.00;;;16.90;99.90;;;;;;5038800;28;20222;-75
2021/05/14 09:21:38;;;;;;;1.02;0.93;;;16.60;99.90;;;;;;5042609;28;20946;-76
2021/05/14 09:24:06;;;;;;;0.90;0.90;;;16.50;99.90;;;;;;5033100;28;20214;-75
2021/05/14 09:26:33;;;;;;;1.05;1.05;;;16.50;99.90;;;;;;5035629;28;20203;-74
2021/05/14 09:29:00;;;;;;;0.90;0.90;;;16.70;99.90;;;;;;5033853;28;20203;-74
2021/05/14 09:31:27;;;;;;;0.80;0.80;;;16.90;99.90;;;;;;5038132;28;20315;-72
2021/05/14 09:33:55;;;;;;;0.90;0.90;;;17.20;99.90;;;;;;5036308;28;20214;-76
2021/05/14 09:36:24;;;;;;;1.20;1.10;;;17.50;99.90;;;;;;5039091;28;20253;-75
2021/05/14 09:38:52;;;;;;;1.35;0.82;;;17.70;99.90;;;;;;5038940;28;20223;-73
2021/05/14 09:41:24;;;;;;;0.85;0.85;;;18.00;99.90;;;;;;5037730;28;20214;-75
2021/05/14 09:43:55;;;;;;;0.80;0.80;;;18.70;99.90;;;;;;5035241;28;20446;-75
2021/05/14 09:46:30;;;;;;;1.38;1.20;;;19.40;99.90;;;;;;5034802;28;20665;-75
2021/05/14 09:48:59;;;;;;;0.90;0.90;;;19.90;99.90;;;;;;5035975;28;20669;-73
2021/05/14 09:51:27;;;;;;;1.00;1.00;;;19.90;99.90;;;;;;5037463;28;20747;-74
2021/05/14 09:53:54;;;;;;;0.80;0.80;;;19.70;99.90;;;;;;5040800;28;20222;-75
2021/05/14 09:56:28;;;;;;;0.70;0.70;;;20.00;99.90;;;;;;5038312;28;20192;-76
2021/05/14 09:58:58;;;;;;;0.77;0.77;;;20.00;99.90;;;;;;5037056;28;20210;-73
2021/05/14 10:01:26;;;;;;;0.65;0.65;;;19.70;99.90;;;;;;5034102;28;20245;-73
2021/05/14 10:03:55;;;;;;;0.60;0.60;;;19.50;99.90;;;;;;5034483;28;20709;-76
2021/05/14 10:06:23;;;;;;;0.90;0.80;;;19.70;99.90;;;;;;5032730;28;20199;-75
2021/05/14 10:08:52;;;;;;;0.90;0.90;;;19.90;99.90;;;;;;5035392;28;20215;-75
2021/05/14 10:11:22;;;;;;;0.77;0.77;;;20.00;99.90;;;;;;5033331;28;20559;-76
2021/05/14 10:13:51;;;;;;;1.00;1.00;;;20.00;99.90;;;;;;5038414;28;20207;-75
2021/05/14 10:16:18;;;;;;;1.05;0.82;;;19.90;99.90;;;;;;5035029;28;20475;-74
2021/05/14 10:18:49;;;;;;;0.90;0.90;;;19.60;99.90;;;;;;5035799;28;20627;-71
2021/05/14 10:21:18;;;;;;;0.88;0.88;;;19.10;99.90;;;;;;5033473;28;20321;-76
2021/05/14 10:23:45;;;;;;;0.90;0.90;;;19.40;99.90;;;;;;5041012;28;20195;-75
2021/05/14 10:26:14;;;;;;;0.80;0.80;;;19.80;99.90;;;;;;5036979;28;20306;-73
2021/05/14 10:28:44;;;;;;;0.73;0.73;;;20.10;99.90;;;;;;5036294;28;20203;-76
2021/05/14 10:31:20;;;;;;;0.98;0.88;;;20.10;99.90;;;;;;5037688;28;20222;-73
2021/05/14 10:33:48;;;;;;;0.70;0.70;;;20.50;99.90;;;;;;5034292;28;20310;-77
2021/05/14 10:36:41;;;;;;;2.33;0.85;;;20.60;99.90;;;;;;5039712;28;20203;-75
2021/05/14 10:39:09;;;;;;;1.52;0.70;;;20.60;99.90;;;;;;5041732;28;20745;-74
2021/05/14 10:41:51;;;;;;;0.80;0.80;;;21.00;99.90;;;;;;5037674;28;20219;-75
2021/05/14 10:44:18;;;;;;;1.38;0.63;;;20.80;99.90;;;;;;5036498;28;20669;-74
2021/05/14 10:46:45;;;;;;;0.85;0.77;;;20.80;99.90;;;;;;5043205;28;20566;-74
2021/05/14 10:49:13;;;;;;;0.70;0.70;;;20.90;99.90;;;;;;5038866;28;20566;-76
2021/05/14 10:52:02;;;;;;;0.70;0.70;;;21.00;99.90;;;;;;5040771;28;20708;-75
2021/05/14 10:54:51;;;;;;;0.60;0.60;;;20.90;99.90;;;;;;5037006;28;20215;-74
2021/05/14 10:57:48;;;;;;;0.68;0.68;;;20.70;99.90;;;;;;5036103;28;20191;-74
2021/05/14 11:00:31;;;;;;;0.82;0.82;;;20.50;99.90;;;;;;5036983;28;20215;-74
2021/05/14 11:03:15;;;;;;;0.52;0.52;;;20.50;99.90;;;;;;5039327;28;20578;-75
2021/05/14 11:05:43;;;;;;;0.80;0.80;;;20.70;99.90;;;;;;5036061;28;20205;-76
2021/05/14 11:08:11;;;;;;;0.70;0.70;;;21.00;99.90;;;;;;5044198;28;20232;-77
2021/05/14 11:10:40;;;;;;;0.70;0.70;;;21.30;99.90;;;;;;5039955;28;20215;-76
2021/05/14 11:13:36;;;;;;;0.57;0.57;;;21.20;99.90;;;;;;5037368;28;20207;-73
2021/05/14 11:16:38;;;;;;;2.25;0.80;;;21.10;99.90;;;;;;5043038;28;20195;-75
2021/05/14 11:19:15;;;;;;;1.38;0.68;;;20.60;99.90;;;;;;5039635;28;20244;-76
2021/05/14 11:22:02;;;;;;;0.68;0.68;;;20.30;99.90;;;;;;5037725;28;20427;-76
2021/05/14 11:24:34;;;;;;;0.70;0.70;;;19.80;99.90;;;;;;5038934;28;20195;-76
2021/05/14 11:27:03;;;;;;;0.60;0.60;;;19.40;99.90;;;;;;5037366;28;20485;-75
2021/05/14 11:29:36;;;;;;;0.70;0.70;;;19.10;99.90;;;;;;5038383;28;20210;-73
2021/05/14 11:32:22;;;;;;;0.60;0.60;;;18.80;99.90;;;;;;5038776;28;20298;-73
2021/05/14 11:35:14;;;;;;;0.70;0.70;;;18.70;99.90;;;;;;5038632;28;20664;-75
2021/05/14 11:37:50;;;;;;;0.70;0.70;;;19.00;99.90;;;;;;5033987;28;20455;-72
2021/05/14 11:40:19;;;;;;;0.65;0.65;;;19.80;99.90;;;;;;5036645;28;20321;-74
2021/05/14 11:42:47;;;;;;;0.70;0.70;;;20.50;99.90;;;;;;5032192;28;20244;-75
2021/05/14 11:45:21;;;;;;;0.60;0.60;;;21.10;99.90;;;;;;5033227;28;20274;-75
2021/05/14 11:47:50;;;;;;;0.70;0.70;;;21.50;99.90;;;;;;5034796;28;20543;-73
2021/05/14 11:50:27;;;;;;;0.70;0.70;;;21.80;99.90;;;;;;5040378;28;20203;-75
2021/05/14 11:52:54;;;;;;;0.50;0.50;;;21.80;99.90;;;;;;5042567;28;20221;-75
2021/05/14 11:55:22;;;;;;;0.60;0.60;;;21.80;99.90;;;;;;5039922;28;20202;-74
2021/05/14 11:57:50;;;;;;;0.73;0.73;;;21.80;99.90;;;;;;5039480;28;20797;-74
2021/05/14 12:00:25;;;;;;;0.68;0.68;;;21.90;99.90;;;;;;5031374;28;20232;-74
2021/05/14 12:02:51;;;;;;;0.60;0.60;;;21.50;99.90;;;;;;5036128;28;20716;-73
2021/05/14 12:05:19;;;;;;;0.60;0.60;;;21.30;99.90;;;;;;5041556;28;20206;-76
2021/05/14 12:07:46;;;;;;;0.60;0.60;;;21.60;99.90;;;;;;5037464;28;20326;-76
2021/05/14 12:10:14;;;;;;;0.60;0.60;;;22.00;99.90;;;;;;5036602;28;20207;-76
2021/05/14 12:12:42;;;;;;;0.50;0.50;;;22.30;99.90;;;;;;5044064;28;20202;-77
2021/05/14 12:15:28;;;;;;;0.63;0.63;;;22.40;99.90;;;;;;5038086;28;20495;-75
2021/05/14 12:17:59;;;;;;;0.80;0.63;;;22.40;99.90;;;;;;5042313;28;20199;-76
2021/05/14 12:20:31;;;;;;;0.60;0.60;;;22.20;99.90;;;;;;5035345;28;20235;-76
2021/05/14 12:23:00;;;;;;;0.60;0.60;;;22.10;99.90;;;;;;5039386;28;20196;-76
2021/05/14 12:25:28;;;;;;;0.60;0.60;;;22.00;99.90;;;;;;5039870;28;20210;-76
2021/05/14 12:27:56;;;;;;;0.70;0.70;;;22.10;99.90;;;;;;5034698;28;20905;-75
2021/05/14 12:30:39;;;;;;;0.85;0.65;;;22.20;99.90;;;;;;5041011;28;20226;-74
2021/05/14 12:33:07;;;;;;;0.60;0.60;;;22.40;99.90;;;;;;5031689;28;20206;-76
2021/05/14 12:35:34;;;;;;;0.60;0.60;;;22.40;99.90;;;;;;5040279;28;20210;-74
2021/05/14 12:38:00;;;;;;;0.60;0.60;;;22.40;99.90;;;;;;5037334;28;20237;-75
2021/05/14 12:40:38;;;;;;;1.02;0.70;;;22.50;99.90;;;;;;5038502;28;20223;-75
2021/05/14 12:43:09;;;;;;;0.50;0.50;;;22.50;99.90;;;;;;5042720;28;20203;-75
2021/05/14 12:45:37;;;;;;;0.63;0.60;;;22.20;99.90;;;;;;5039164;28;20565;-77
2021/05/14 12:48:06;;;;;;;0.60;0.60;;;22.10;99.90;;;;;;5039998;28;20199;-75
2021/05/14 12:50:33;;;;;;;0.55;0.55;;;22.20;99.90;;;;;;5036927;28;20245;-76
2021/05/14 12:53:00;;;;;;;0.60;0.60;;;21.90;99.90;;;;;;5039317;28;20203;-76
2021/05/14 12:55:27;;;;;;;0.70;0.70;;;21.60;99.90;;;;;;5039432;28;20212;-75